El Paso, TX (88528)

1:39 PM MDT on July 30, 2016 (GMT -0600)
Park Foothills | | Change Station

Elev 4039 ft 31.85 °N, 106.45 °W | Updated 18 seconds ago

Partly Cloudy
Partly Cloudy
95.7 °F
Feels Like 95 °F
N
11.0
Wind Variable Wind from SSE
Gusts 12.0 mph

Today
High -- | Low -- °F
--% Chance of Precip.
Yesterday
High -- | Low -- °F
Precip. -- in
Pressure 29.81 in
Visibility 10.0 miles
Clouds Few 7500 ft
Few 25000 ft
Heat Index 95 °F
Dew Point 58 °F
Humidity 29%
Rainfall 0.00 in
Snow Depth Not available.
6:20 AM 8:03 PM
Waning Crescent, 11% visible
METAR KELP 301851Z 14009KT 10SM FEW075 FEW250 32/14 A3005 RMK AO2 SLP093 TCU DSNT SE-S T03220139
Pressure 29.81 in
Visibility 10.0 miles
Clouds Few 7500 ft
Few 25000 ft
Heat Index 95 °F
Dew Point 58 °F
Humidity 29%
Rainfall 0.00 in
Snow Depth Not available.
6:20 AM 8:03 PM
Waning Crescent, 11% visible
METAR KELP 301851Z 14009KT 10SM FEW075 FEW250 32/14 A3005 RMK AO2 SLP093 TCU DSNT SE-S T03220139

10-Day Weather Forecast

Almanac

Astronomy

Jul. 30, 2016 Rise Set
Actual Time
Civil Twilight
Nautical Twilight
Astronomical Twilight
Moon
Length of Visible Light
Length of Day
Tomorrow will be .
, % of the Moon is Illuminated

Today's Extremes

State Highs State Lows

Community

WunderPhotos

Upload Photos

1,928,626 photos uploaded!

WunderBlog® & News

Nearby

Air Quality

  Air Quality AQ Index Pollutant
Not available.

Snow Depth

Station Depth Elevation

Earthquake Activity

City Distance Mag. Time & Date
Minimum magnitude displayed is 2.5.

Coastal Water Temperatures

Place Temperature

Stations

Nearby Weather Stations

Station Location Temp. Windchill Dew Point Humidity Wind Precip. Elev Updated Type
                   

Watches & Warnings

There are currently no watches in effect.